Pagrindinis puslapis
METAR-TAF:

METAR-TAF

Oro uostai :

Raton Municipal Airport (Crews Field)

Raton, Naujoji Meksika, Jungtinės Amerikos Valstijos

platuma: 36-44-31N, ilguma: 104-39-28W, Aukštis: 1935 m

Dabartinis oras

Ataskaita buvo paskelbta 1 valandą ir 0 minutes, ne 03:53 UTC
Ramus vėjas
Temperatūra 18°C
Drėgmė 56%
Slėgis 1019 hPa
Matomumas: 16.1 km
Giedras dangus

METAR: KRTN 250353Z AUTO 00000KT 10SM CLR 18/09 A3009 RMK AO2 SLP093 T01780089

Laikas: 22:53 (04:53 UTC)


TAF: trūkstamas

Orai ataskaitas ir orų prognozės (METAR, TAF).

turimą stotys yra geltonos ir raudonos taškus žemėlapyje.

Perkelti pele per norėdami pamatyti stoties vardą.

Tada spustelėkite, norėdami matyti oro stebėjimo ir prognozės.

Norėdami pakeisti žemėlapį: spustelėkite ant žalios mygtukų su juodo kryžiaus žemyn,; žalią mygtuką su brūkšneliu, jei norite nutolinti; arba žalių rodyklių gretimoms žemėlapius.


METAR-TAF: